首页
METAR-TAF:

METAR-TAF

机场 :

Magdalen Islands, 魁北克, 加拿大

纬度: 47-25N, 经度: 061-47W, 海拔: 10米

当前天气观测

该预报发布于1小时和6分钟前的01:00 UTC
风速10节,风向南转南东
温度 9°C
湿度 81%
气压 1014 hPa
能見度: 24.1公里
少量云层高于28000英尺

METAR: CYGR 210100Z 16010KT 15SM FEW280 09/06 A2995 RMK CI1 SLP145

时间: 22:06 (02:06 UTC)

预报

该预报发布于6小时和23分钟前的19:43 UTC
预报有效从20日的 20点(UTC)到 21日的 02点(UTC)
风速10节,风向南转南东
能見度: 10公里
散云层高于24000英尺

TAF: CYGR 201943Z 2020/2102 16010KT P6SM SCT240 RMK NXT FCST BY 211100Z

超过4000个机场的气象观测和天气预报(METAR&TAF报告)。

可查询的气象台以黄色和红色小点在地图上表示。

将鼠标移到小点上方,可查看气象台名称。

然后点击查看天气观测和预报。

如需切换地图:点击带黑十字的绿色按钮放大地图;点击带横线的绿色按钮缩小地图;或者点击绿色箭头查看邻近地区的地图。


METAR-TAF: